sensor_id;sensor_type;location;lat;lon;timestamp;pressure;altitude;pressure_sealevel;temperature;humidity
18900;BME280;9582;52.018;6.306;2022-09-09T00:01:52;100656.66;;;16.38;94.98
18900;BME280;9582;52.018;6.306;2022-09-09T00:04:26;100653.19;;;16.38;95.74
18900;BME280;9582;52.018;6.306;2022-09-09T00:07:01;100651.28;;;16.40;95.43
18900;BME280;9582;52.018;6.306;2022-09-09T00:09:38;100652.03;;;16.42;94.99
18900;BME280;9582;52.018;6.306;2022-09-09T00:12:11;100646.84;;;16.40;94.94
18900;BME280;9582;52.018;6.306;2022-09-09T00:14:43;100647.59;;;16.42;94.92
18900;BME280;9582;52.018;6.306;2022-09-09T00:17:14;100646.88;;;16.28;95.59
18900;BME280;9582;52.018;6.306;2022-09-09T00:19:47;100655.09;;;16.36;95.15
18900;BME280;9582;52.018;6.306;2022-09-09T00:22:17;100646.88;;;16.28;95.53
18900;BME280;9582;52.018;6.306;2022-09-09T00:24:48;100644.16;;;16.16;95.48
18900;BME280;9582;52.018;6.306;2022-09-09T00:27:23;100638.13;;;16.14;96.20
18900;BME280;9582;52.018;6.306;2022-09-09T00:29:56;100640.88;;;16.26;95.74
18900;BME280;9582;52.018;6.306;2022-09-09T00:32:27;100639.69;;;16.30;95.44
18900;BME280;9582;52.018;6.306;2022-09-09T00:35:00;100639.59;;;16.31;95.72
18900;BME280;9582;52.018;6.306;2022-09-09T00:37:28;100639.97;;;16.38;95.52
18900;BME280;9582;52.018;6.306;2022-09-09T00:40:01;100643.25;;;16.29;95.48
18900;BME280;9582;52.018;6.306;2022-09-09T00:42:36;100642.97;;;16.21;95.72
18900;BME280;9582;52.018;6.306;2022-09-09T00:45:19;100643.25;;;16.29;95.71
18900;BME280;9582;52.018;6.306;2022-09-09T00:47:52;100641.59;;;16.28;95.56
18900;BME280;9582;52.018;6.306;2022-09-09T00:50:35;100639.25;;;16.36;95.42
18900;BME280;9582;52.018;6.306;2022-09-09T00:53:19;100631.03;;;16.28;95.32
18900;BME280;9582;52.018;6.306;2022-09-09T00:55:56;100633.34;;;16.32;95.25
18900;BME280;9582;52.018;6.306;2022-09-09T00:58:27;100637.69;;;16.33;94.69
18900;BME280;9582;52.018;6.306;2022-09-09T01:00:57;100634.91;;;16.35;94.51
18900;BME280;9582;52.018;6.306;2022-09-09T01:03:34;100619.97;;;16.23;94.43
18900;BME280;9582;52.018;6.306;2022-09-09T01:06:11;100625.91;;;16.01;94.78
18900;BME280;9582;52.018;6.306;2022-09-09T01:09:12;100627.34;;;16.17;94.97
18900;BME280;9582;52.018;6.306;2022-09-09T01:11:51;100626.84;;;16.25;94.34
18900;BME280;9582;52.018;6.306;2022-09-09T01:14:29;100627.91;;;16.23;93.80
18900;BME280;9582;52.018;6.306;2022-09-09T01:17:02;100628.31;;;16.16;94.17
18900;BME280;9582;52.018;6.306;2022-09-09T01:19:39;100626.03;;;15.99;93.84
18900;BME280;9582;52.018;6.306;2022-09-09T01:22:16;100629.19;;;16.04;93.73
18900;BME280;9582;52.018;6.306;2022-09-09T01:25:05;100621.06;;;16.07;93.62
18900;BME280;9582;52.018;6.306;2022-09-09T01:28:15;100620.13;;;16.08;93.02
18900;BME280;9582;52.018;6.306;2022-09-09T01:30:43;100615.28;;;16.02;93.02
18900;BME280;9582;52.018;6.306;2022-09-09T01:33:15;100619.19;;;15.84;92.99
18900;BME280;9582;52.018;6.306;2022-09-09T01:35:46;100616.97;;;15.78;93.95
18900;BME280;9582;52.018;6.306;2022-09-09T01:38:17;100621.38;;;15.52;94.82
18900;BME280;9582;52.018;6.306;2022-09-09T01:40:45;100619.72;;;15.51;95.04
18900;BME280;9582;52.018;6.306;2022-09-09T01:43:14;100623.19;;;15.65;94.39
18900;BME280;9582;52.018;6.306;2022-09-09T01:45:42;100616.88;;;15.67;94.22
18900;BME280;9582;52.018;6.306;2022-09-09T01:48:09;100618.75;;;15.52;94.42
18900;BME280;9582;52.018;6.306;2022-09-09T01:50:41;100622.66;;;15.47;95.14
18900;BME280;9582;52.018;6.306;2022-09-09T01:53:08;100627.50;;;15.53;94.88
18900;BME280;9582;52.018;6.306;2022-09-09T01:55:39;100624.53;;;15.45;94.95
18900;BME280;9582;52.018;6.306;2022-09-09T01:58:19;100627.94;;;15.47;95.32
18900;BME280;9582;52.018;6.306;2022-09-09T02:00:57;100617.03;;;15.39;95.55
18900;BME280;9582;52.018;6.306;2022-09-09T02:03:29;100626.19;;;15.33;95.76
18900;BME280;9582;52.018;6.306;2022-09-09T02:06:14;100623.69;;;15.32;95.52
18900;BME280;9582;52.018;6.306;2022-09-09T02:08:50;100619.56;;;15.28;95.60
18900;BME280;9582;52.018;6.306;2022-09-09T02:11:20;100625.03;;;15.25;95.70
18900;BME280;9582;52.018;6.306;2022-09-09T02:14:01;100628.19;;;15.30;95.25
18900;BME280;9582;52.018;6.306;2022-09-09T02:16:34;100624.47;;;15.07;95.45
18900;BME280;9582;52.018;6.306;2022-09-09T02:19:08;100620.03;;;15.08;96.40
18900;BME280;9582;52.018;6.306;2022-09-09T02:21:55;100632.94;;;15.25;96.45
18900;BME280;9582;52.018;6.306;2022-09-09T02:24:23;100629.97;;;15.17;96.34
18900;BME280;9582;52.018;6.306;2022-09-09T02:27:02;100626.59;;;15.15;96.46
18900;BME280;9582;52.018;6.306;2022-09-09T02:29:34;100630.28;;;15.25;95.91
18900;BME280;9582;52.018;6.306;2022-09-09T02:32:06;100627.72;;;15.11;96.39
18900;BME280;9582;52.018;6.306;2022-09-09T02:34:40;100622.47;;;15.11;96.61
18900;BME280;9582;52.018;6.306;2022-09-09T02:37:09;100620.28;;;15.30;96.03
18900;BME280;9582;52.018;6.306;2022-09-09T02:39:37;100615.66;;;15.21;95.66
18900;BME280;9582;52.018;6.306;2022-09-09T02:42:06;100618.97;;;15.10;96.09
18900;BME280;9582;52.018;6.306;2022-09-09T02:44:35;100617.59;;;15.04;96.47
18900;BME280;9582;52.018;6.306;2022-09-09T02:47:13;100617.06;;;14.99;96.75
18900;BME280;9582;52.018;6.306;2022-09-09T02:49:54;100622.72;;;14.93;96.83
18900;BME280;9582;52.018;6.306;2022-09-09T02:52:29;100620.81;;;14.83;96.91
18900;BME280;9582;52.018;6.306;2022-09-09T02:55:04;100623.50;;;14.95;97.82
18900;BME280;9582;52.018;6.306;2022-09-09T02:57:34;100622.34;;;14.99;97.00
18900;BME280;9582;52.018;6.306;2022-09-09T03:00:06;100620.22;;;15.04;96.45
18900;BME280;9582;52.018;6.306;2022-09-09T03:02:33;100623.31;;;14.98;95.86
18900;BME280;9582;52.018;6.306;2022-09-09T03:05:05;100614.09;;;14.91;95.24
18900;BME280;9582;52.018;6.306;2022-09-09T03:07:32;100617.97;;;14.86;95.11
18900;BME280;9582;52.018;6.306;2022-09-09T03:09:59;100616.72;;;14.91;94.93
18900;BME280;9582;52.018;6.306;2022-09-09T03:12:27;100611.38;;;14.93;95.87
18900;BME280;9582;52.018;6.306;2022-09-09T03:14:53;100610.19;;;14.84;96.10
18900;BME280;9582;52.018;6.306;2022-09-09T03:17:21;100612.59;;;14.87;96.66
18900;BME280;9582;52.018;6.306;2022-09-09T03:19:52;100611.28;;;14.94;96.58
18900;BME280;9582;52.018;6.306;2022-09-09T03:22:20;100608.69;;;14.80;96.57
18900;BME280;9582;52.018;6.306;2022-09-09T03:24:47;100612.91;;;14.83;96.12
18900;BME280;9582;52.018;6.306;2022-09-09T03:27:14;100611.66;;;14.76;96.56
18900;BME280;9582;52.018;6.306;2022-09-09T03:29:41;100613.50;;;14.74;97.13
18900;BME280;9582;52.018;6.306;2022-09-09T03:32:12;100617.53;;;14.79;97.15
18900;BME280;9582;52.018;6.306;2022-09-09T03:34:41;100613.66;;;14.85;97.58
18900;BME280;9582;52.018;6.306;2022-09-09T03:37:10;100618.63;;;14.63;97.79
18900;BME280;9582;52.018;6.306;2022-09-09T03:39:38;100617.06;;;14.87;97.36
18900;BME280;9582;52.018;6.306;2022-09-09T03:42:06;100625.69;;;14.89;96.51
18900;BME280;9582;52.018;6.306;2022-09-09T03:44:33;100624.88;;;14.74;96.98
18900;BME280;9582;52.018;6.306;2022-09-09T03:46:59;100622.78;;;14.79;96.80
18900;BME280;9582;52.018;6.306;2022-09-09T03:49:26;100620.31;;;14.64;97.18
18900;BME280;9582;52.018;6.306;2022-09-09T03:51:56;100623.03;;;14.62;98.03
18900;BME280;9582;52.018;6.306;2022-09-09T03:54:24;100623.47;;;14.56;98.11
18900;BME280;9582;52.018;6.306;2022-09-09T03:56:51;100612.72;;;14.59;98.57
18900;BME280;9582;52.018;6.306;2022-09-09T03:59:17;100615.53;;;14.70;98.27
18900;BME280;9582;52.018;6.306;2022-09-09T04:01:44;100615.59;;;14.69;98.21
18900;BME280;9582;52.018;6.306;2022-09-09T04:04:12;100622.44;;;14.71;98.15
18900;BME280;9582;52.018;6.306;2022-09-09T04:06:40;100622.75;;;14.67;98.29
18900;BME280;9582;52.018;6.306;2022-09-09T04:09:07;100617.38;;;14.68;98.86
18900;BME280;9582;52.018;6.306;2022-09-09T04:11:34;100610.59;;;14.78;99.01
18900;BME280;9582;52.018;6.306;2022-09-09T04:14:02;100609.69;;;14.92;98.67
18900;BME280;9582;52.018;6.306;2022-09-09T04:16:29;100611.38;;;14.93;98.23
18900;BME280;9582;52.018;6.306;2022-09-09T04:18:55;100612.31;;;14.92;99.03
18900;BME280;9582;52.018;6.306;2022-09-09T04:21:23;100607.75;;;14.81;99.53
18900;BME280;9582;52.018;6.306;2022-09-09T04:23:50;100613.25;;;14.91;99.60
18900;BME280;9582;52.018;6.306;2022-09-09T04:26:19;100606.53;;;14.87;99.52
18900;BME280;9582;52.018;6.306;2022-09-09T04:28:46;100610.75;;;14.89;99.88
18900;BME280;9582;52.018;6.306;2022-09-09T04:31:18;100606.41;;;14.88;100.00
18900;BME280;9582;52.018;6.306;2022-09-09T04:33:47;100600.94;;;14.91;100.00
18900;BME280;9582;52.018;6.306;2022-09-09T04:36:15;100612.69;;;15.13;100.00
18900;BME280;9582;52.018;6.306;2022-09-09T04:38:42;100608.03;;;15.03;100.00
18900;BME280;9582;52.018;6.306;2022-09-09T04:41:10;100604.47;;;15.17;99.66
18900;BME280;9582;52.018;6.306;2022-09-09T04:43:40;100604.16;;;15.09;100.00
18900;BME280;9582;52.018;6.306;2022-09-09T04:46:08;100601.63;;;15.20;100.00
18900;BME280;9582;52.018;6.306;2022-09-09T04:48:35;100598.59;;;15.26;100.00
18900;BME280;9582;52.018;6.306;2022-09-09T04:51:05;100600.25;;;15.27;100.00
18900;BME280;9582;52.018;6.306;2022-09-09T04:53:33;100600.19;;;15.29;100.00
18900;BME280;9582;52.018;6.306;2022-09-09T04:56:04;100595.03;;;15.40;100.00
18900;BME280;9582;52.018;6.306;2022-09-09T04:58:34;100591.91;;;15.60;99.68
18900;BME280;9582;52.018;6.306;2022-09-09T05:01:06;100600.53;;;15.62;98.55
18900;BME280;9582;52.018;6.306;2022-09-09T05:03:35;100596.75;;;15.53;99.10
18900;BME280;9582;52.018;6.306;2022-09-09T05:06:04;100591.34;;;15.68;99.29
18900;BME280;9582;52.018;6.306;2022-09-09T05:08:31;100599.59;;;15.63;98.94
18900;BME280;9582;52.018;6.306;2022-09-09T05:10:58;100601.38;;;15.50;99.63
18900;BME280;9582;52.018;6.306;2022-09-09T05:13:26;100587.03;;;15.67;99.88
18900;BME280;9582;52.018;6.306;2022-09-09T05:15:52;100590.09;;;15.73;99.93
18900;BME280;9582;52.018;6.306;2022-09-09T05:18:21;100593.38;;;15.77;99.57
18900;BME280;9582;52.018;6.306;2022-09-09T05:20:48;100592.22;;;15.68;100.00
18900;BME280;9582;52.018;6.306;2022-09-09T05:23:16;100593.66;;;15.85;100.00
18900;BME280;9582;52.018;6.306;2022-09-09T05:25:43;100585.97;;;15.82;99.70
18900;BME280;9582;52.018;6.306;2022-09-09T05:28:13;100579.84;;;15.81;100.00
18900;BME280;9582;52.018;6.306;2022-09-09T05:30:39;100583.84;;;15.87;100.00
18900;BME280;9582;52.018;6.306;2022-09-09T05:33:06;100582.47;;;15.81;100.00
18900;BME280;9582;52.018;6.306;2022-09-09T05:35:36;100577.72;;;15.86;100.00
18900;BME280;9582;52.018;6.306;2022-09-09T05:38:03;100585.75;;;15.97;100.00
18900;BME280;9582;52.018;6.306;2022-09-09T05:40:30;100592.25;;;16.04;100.00
18900;BME280;9582;52.018;6.306;2022-09-09T05:43:00;100590.59;;;15.91;99.27
18900;BME280;9582;52.018;6.306;2022-09-09T05:45:27;100590.69;;;15.89;100.00
18900;BME280;9582;52.018;6.306;2022-09-09T05:47:54;100592.38;;;16.03;100.00
18900;BME280;9582;52.018;6.306;2022-09-09T05:50:20;100593.78;;;15.83;99.47
18900;BME280;9582;52.018;6.306;2022-09-09T05:52:54;100589.31;;;15.96;99.67
18900;BME280;9582;52.018;6.306;2022-09-09T05:55:20;100589.13;;;15.99;99.80
18900;BME280;9582;52.018;6.306;2022-09-09T05:57:48;100601.31;;;16.00;99.61
18900;BME280;9582;52.018;6.306;2022-09-09T06:00:17;100593.13;;;15.92;99.99
18900;BME280;9582;52.018;6.306;2022-09-09T06:02:50;100601.78;;;15.94;100.00
18900;BME280;9582;52.018;6.306;2022-09-09T06:05:18;100603.66;;;15.92;100.00
18900;BME280;9582;52.018;6.306;2022-09-09T06:07:45;100607.06;;;15.94;100.00
18900;BME280;9582;52.018;6.306;2022-09-09T06:10:14;100596.31;;;15.97;100.00
18900;BME280;9582;52.018;6.306;2022-09-09T06:12:40;100604.50;;;16.05;100.00
18900;BME280;9582;52.018;6.306;2022-09-09T06:15:08;100607.16;;;16.05;100.00
18900;BME280;9582;52.018;6.306;2022-09-09T06:17:35;100608.72;;;15.95;100.00
18900;BME280;9582;52.018;6.306;2022-09-09T06:20:02;100612.38;;;16.18;100.00
18900;BME280;9582;52.018;6.306;2022-09-09T06:22:30;100612.44;;;16.29;100.00
18900;BME280;9582;52.018;6.306;2022-09-09T06:24:57;100612.06;;;16.23;100.00
18900;BME280;9582;52.018;6.306;2022-09-09T06:27:26;100614.00;;;16.44;100.00
18900;BME280;9582;52.018;6.306;2022-09-09T06:29:53;100602.72;;;16.42;100.00
18900;BME280;9582;52.018;6.306;2022-09-09T06:32:20;100611.47;;;16.43;100.00
18900;BME280;9582;52.018;6.306;2022-09-09T06:34:46;100609.50;;;16.34;100.00
18900;BME280;9582;52.018;6.306;2022-09-09T06:37:14;100599.75;;;16.34;100.00
18900;BME280;9582;52.018;6.306;2022-09-09T06:39:46;100605.66;;;16.38;100.00
18900;BME280;9582;52.018;6.306;2022-09-09T06:42:13;100602.66;;;16.67;100.00
18900;BME280;9582;52.018;6.306;2022-09-09T06:45:01;100606.72;;;16.95;100.00
18900;BME280;9582;52.018;6.306;2022-09-09T06:47:34;100609.22;;;17.20;100.00
18900;BME280;9582;52.018;6.306;2022-09-09T06:50:02;100607.88;;;17.15;100.00
18900;BME280;9582;52.018;6.306;2022-09-09T06:52:31;100611.44;;;17.38;99.27
18900;BME280;9582;52.018;6.306;2022-09-09T06:54:59;100605.75;;;17.77;98.62
18900;BME280;9582;52.018;6.306;2022-09-09T06:57:26;100599.25;;;18.03;96.57
18900;BME280;9582;52.018;6.306;2022-09-09T06:59:52;100596.84;;;18.22;95.89
18900;BME280;9582;52.018;6.306;2022-09-09T07:02:20;100589.34;;;18.50;94.74
18900;BME280;9582;52.018;6.306;2022-09-09T07:04:47;100588.16;;;18.31;94.20
18900;BME280;9582;52.018;6.306;2022-09-09T07:07:17;100597.94;;;18.09;94.40
18900;BME280;9582;52.018;6.306;2022-09-09T07:09:43;100599.75;;;17.97;95.09
18900;BME280;9582;52.018;6.306;2022-09-09T07:12:12;100601.78;;;17.94;95.42
18900;BME280;9582;52.018;6.306;2022-09-09T07:14:44;100600.69;;;17.74;95.44
18900;BME280;9582;52.018;6.306;2022-09-09T07:17:11;100605.97;;;17.63;96.02
18900;BME280;9582;52.018;6.306;2022-09-09T07:19:40;100599.25;;;18.25;94.92
18900;BME280;9582;52.018;6.306;2022-09-09T07:22:08;100602.75;;;18.69;93.69
18900;BME280;9582;52.018;6.306;2022-09-09T07:24:36;100593.69;;;18.39;93.49
18900;BME280;9582;52.018;6.306;2022-09-09T07:27:03;100603.06;;;18.21;94.31
18900;BME280;9582;52.018;6.306;2022-09-09T07:29:30;100595.53;;;18.06;95.12
18900;BME280;9582;52.018;6.306;2022-09-09T07:31:58;100607.53;;;17.99;95.12
18900;BME280;9582;52.018;6.306;2022-09-09T07:34:30;100609.59;;;18.06;95.51
18900;BME280;9582;52.018;6.306;2022-09-09T07:36:58;100611.97;;;18.09;94.83
18900;BME280;9582;52.018;6.306;2022-09-09T07:39:25;100604.78;;;18.00;94.95
18900;BME280;9582;52.018;6.306;2022-09-09T07:41:53;100611.28;;;17.96;95.07
18900;BME280;9582;52.018;6.306;2022-09-09T07:44:23;100609.94;;;18.02;95.04
18900;BME280;9582;52.018;6.306;2022-09-09T07:47:02;100614.06;;;18.06;95.56
18900;BME280;9582;52.018;6.306;2022-09-09T07:49:34;100615.84;;;18.05;94.57
18900;BME280;9582;52.018;6.306;2022-09-09T07:52:04;100611.97;;;18.09;94.04
18900;BME280;9582;52.018;6.306;2022-09-09T07:54:32;100614.38;;;18.23;93.29
18900;BME280;9582;52.018;6.306;2022-09-09T07:57:00;100615.94;;;18.15;93.25
18900;BME280;9582;52.018;6.306;2022-09-09T07:59:30;100613.41;;;18.24;93.47
18900;BME280;9582;52.018;6.306;2022-09-09T08:01:57;100614.66;;;18.20;94.33
18900;BME280;9582;52.018;6.306;2022-09-09T08:04:27;100620.50;;;18.35;93.83
18900;BME280;9582;52.018;6.306;2022-09-09T08:06:57;100621.09;;;18.50;94.00
18900;BME280;9582;52.018;6.306;2022-09-09T08:09:26;100624.75;;;18.49;92.82
18900;BME280;9582;52.018;6.306;2022-09-09T08:11:58;100627.50;;;18.36;92.17
18900;BME280;9582;52.018;6.306;2022-09-09T08:14:25;100618.94;;;18.32;92.46
18900;BME280;9582;52.018;6.306;2022-09-09T08:16:52;100623.97;;;18.46;91.93
18900;BME280;9582;52.018;6.306;2022-09-09T08:19:21;100621.81;;;18.52;91.57
18900;BME280;9582;52.018;6.306;2022-09-09T08:21:49;100615.81;;;18.50;91.51
18900;BME280;9582;52.018;6.306;2022-09-09T08:24:16;100624.47;;;18.63;90.46
18900;BME280;9582;52.018;6.306;2022-09-09T08:26:48;100620.88;;;18.53;90.47
18900;BME280;9582;52.018;6.306;2022-09-09T08:29:18;100617.47;;;18.62;90.01
18900;BME280;9582;52.018;6.306;2022-09-09T08:31:47;100613.31;;;18.80;88.64
18900;BME280;9582;52.018;6.306;2022-09-09T08:34:15;100618.25;;;19.16;88.86
18900;BME280;9582;52.018;6.306;2022-09-09T08:36:44;100624.91;;;18.99;86.75
18900;BME280;9582;52.018;6.306;2022-09-09T08:39:14;100628.91;;;19.05;85.85
18900;BME280;9582;52.018;6.306;2022-09-09T08:42:07;100615.41;;;18.97;86.56
18900;BME280;9582;52.018;6.306;2022-09-09T08:44:51;100627.81;;;19.08;85.98
18900;BME280;9582;52.018;6.306;2022-09-09T08:47:28;100621.44;;;19.20;84.68
18900;BME280;9582;52.018;6.306;2022-09-09T08:50:19;100614.78;;;19.25;84.19
18900;BME280;9582;52.018;6.306;2022-09-09T08:52:57;100607.88;;;19.34;84.62
18900;BME280;9582;52.018;6.306;2022-09-09T08:55:37;100609.34;;;19.58;84.38
18900;BME280;9582;52.018;6.306;2022-09-09T08:58:13;100601.41;;;19.68;82.21
18900;BME280;9582;52.018;6.306;2022-09-09T09:00:48;100610.66;;;19.74;81.58
18900;BME280;9582;52.018;6.306;2022-09-09T09:03:25;100616.22;;;19.71;81.71
18900;BME280;9582;52.018;6.306;2022-09-09T09:06:01;100610.28;;;19.78;81.15
18900;BME280;9582;52.018;6.306;2022-09-09T09:08:35;100614.94;;;19.65;80.73
18900;BME280;9582;52.018;6.306;2022-09-09T09:11:04;100620.75;;;19.80;80.29
18900;BME280;9582;52.018;6.306;2022-09-09T09:13:38;100621.81;;;19.68;79.69
18900;BME280;9582;52.018;6.306;2022-09-09T09:16:15;100626.66;;;19.83;79.49
18900;BME280;9582;52.018;6.306;2022-09-09T09:18:44;100620.56;;;19.92;79.27
18900;BME280;9582;52.018;6.306;2022-09-09T09:21:14;100621.38;;;19.93;79.82
18900;BME280;9582;52.018;6.306;2022-09-09T09:23:48;100618.53;;;19.85;79.82
18900;BME280;9582;52.018;6.306;2022-09-09T09:26:19;100621.09;;;19.96;79.20
18900;BME280;9582;52.018;6.306;2022-09-09T09:28:49;100624.38;;;19.79;78.93
18900;BME280;9582;52.018;6.306;2022-09-09T09:31:18;100624.44;;;19.68;79.26
18900;BME280;9582;52.018;6.306;2022-09-09T09:33:48;100631.84;;;19.64;79.24
18900;BME280;9582;52.018;6.306;2022-09-09T09:36:17;100634.94;;;19.69;79.65
18900;BME280;9582;52.018;6.306;2022-09-09T09:38:54;100624.91;;;19.73;79.46
18900;BME280;9582;52.018;6.306;2022-09-09T09:41:29;100631.13;;;19.62;79.40
18900;BME280;9582;52.018;6.306;2022-09-09T09:43:58;100627.09;;;19.68;80.41
18900;BME280;9582;52.018;6.306;2022-09-09T09:46:28;100630.16;;;19.93;79.52
18900;BME280;9582;52.018;6.306;2022-09-09T09:49:09;100626.66;;;19.93;78.94
18900;BME280;9582;52.018;6.306;2022-09-09T09:51:37;100620.56;;;20.02;77.81
18900;BME280;9582;52.018;6.306;2022-09-09T09:54:14;100628.09;;;19.97;77.75
18900;BME280;9582;52.018;6.306;2022-09-09T09:56:48;100625.63;;;20.05;78.42
18900;BME280;9582;52.018;6.306;2022-09-09T09:59:33;100627.41;;;20.04;78.25
18900;BME280;9582;52.018;6.306;2022-09-09T10:02:14;100630.72;;;20.17;76.49
18900;BME280;9582;52.018;6.306;2022-09-09T10:04:41;100620.63;;;20.21;76.23
18900;BME280;9582;52.018;6.306;2022-09-09T10:07:12;100631.00;;;20.24;76.08
18900;BME280;9582;52.018;6.306;2022-09-09T10:09:40;100616.81;;;20.44;76.16
18900;BME280;9582;52.018;6.306;2022-09-09T10:12:17;100617.41;;;20.48;75.09
18900;BME280;9582;52.018;6.306;2022-09-09T10:14:54;100617.66;;;20.45;74.33
18900;BME280;9582;52.018;6.306;2022-09-09T10:17:33;100614.31;;;20.52;74.63
18900;BME280;9582;52.018;6.306;2022-09-09T10:20:20;100616.28;;;20.50;74.89
18900;BME280;9582;52.018;6.306;2022-09-09T10:22:52;100622.28;;;20.52;75.41
18900;BME280;9582;52.018;6.306;2022-09-09T10:25:35;100626.06;;;20.40;76.14
18900;BME280;9582;52.018;6.306;2022-09-09T10:28:46;100621.28;;;20.34;74.51
18900;BME280;9582;52.018;6.306;2022-09-09T10:31:24;100617.16;;;20.70;74.26
18900;BME280;9582;52.018;6.306;2022-09-09T10:34:00;100618.84;;;20.90;73.37
18900;BME280;9582;52.018;6.306;2022-09-09T10:36:28;100614.94;;;21.04;73.26
18900;BME280;9582;52.018;6.306;2022-09-09T10:38:59;100612.44;;;21.02;73.18
18900;BME280;9582;52.018;6.306;2022-09-09T10:41:41;100615.22;;;21.01;72.35
18900;BME280;9582;52.018;6.306;2022-09-09T10:44:19;100610.16;;;20.79;72.34
18900;BME280;9582;52.018;6.306;2022-09-09T10:47:02;100614.91;;;20.75;72.47
18900;BME280;9582;52.018;6.306;2022-09-09T10:49:48;100613.81;;;20.68;72.02
18900;BME280;9582;52.018;6.306;2022-09-09T10:52:24;100609.59;;;20.75;72.08
18900;BME280;9582;52.018;6.306;2022-09-09T10:54:57;100610.31;;;20.87;71.89
18900;BME280;9582;52.018;6.306;2022-09-09T10:57:29;100607.66;;;20.87;71.30
18900;BME280;9582;52.018;6.306;2022-09-09T11:00:03;100609.88;;;20.72;69.97
18900;BME280;9582;52.018;6.306;2022-09-09T11:02:33;100612.66;;;20.61;70.59
18900;BME280;9582;52.018;6.306;2022-09-09T11:05:03;100609.84;;;20.43;69.35
18900;BME280;9582;52.018;6.306;2022-09-09T11:07:37;100609.84;;;20.43;70.51
18900;BME280;9582;52.018;6.306;2022-09-09T11:10:17;100605.81;;;20.58;70.74
18900;BME280;9582;52.018;6.306;2022-09-09T11:12:47;100607.91;;;20.45;70.78
18900;BME280;9582;52.018;6.306;2022-09-09T11:15:19;100609.28;;;20.49;70.83
18900;BME280;9582;52.018;6.306;2022-09-09T11:17:50;100614.28;;;20.33;70.47
18900;BME280;9582;52.018;6.306;2022-09-09T11:20:20;100613.00;;;20.28;71.22
18900;BME280;9582;52.018;6.306;2022-09-09T11:22:49;100609.59;;;20.16;71.32
18900;BME280;9582;52.018;6.306;2022-09-09T11:25:21;100611.13;;;20.18;71.39
18900;BME280;9582;52.018;6.306;2022-09-09T11:27:58;100622.59;;;20.09;71.69
18900;BME280;9582;52.018;6.306;2022-09-09T11:30:38;100607.56;;;19.99;71.56
18900;BME280;9582;52.018;6.306;2022-09-09T11:33:37;100617.34;;;19.98;73.29
18900;BME280;9582;52.018;6.306;2022-09-09T11:36:43;100613.50;;;20.22;72.20
18900;BME280;9582;52.018;6.306;2022-09-09T11:39:35;100616.41;;;20.39;72.80
18900;BME280;9582;52.018;6.306;2022-09-09T11:42:07;100611.28;;;20.57;71.82
18900;BME280;9582;52.018;6.306;2022-09-09T11:44:34;100618.53;;;20.64;71.95
18900;BME280;9582;52.018;6.306;2022-09-09T11:47:00;100611.53;;;20.54;71.67
18900;BME280;9582;52.018;6.306;2022-09-09T11:49:30;100616.25;;;20.31;72.32
18900;BME280;9582;52.018;6.306;2022-09-09T11:52:11;100609.41;;;20.08;72.90
18900;BME280;9582;52.018;6.306;2022-09-09T11:54:47;100607.44;;;20.00;72.89
18900;BME280;9582;52.018;6.306;2022-09-09T11:57:23;100608.28;;;20.01;73.58
18900;BME280;9582;52.018;6.306;2022-09-09T11:59:51;100609.19;;;19.81;74.87
18900;BME280;9582;52.018;6.306;2022-09-09T12:02:22;100600.22;;;19.82;75.36
18900;BME280;9582;52.018;6.306;2022-09-09T12:04:55;100622.03;;;19.55;75.65
18900;BME280;9582;52.018;6.306;2022-09-09T12:07:30;100619.28;;;19.25;77.37
18900;BME280;9582;52.018;6.306;2022-09-09T12:10:00;100620.88;;;19.16;77.64
18900;BME280;9582;52.018;6.306;2022-09-09T12:12:30;100628.50;;;19.10;77.97
18900;BME280;9582;52.018;6.306;2022-09-09T12:15:01;100638.25;;;19.09;80.14
18900;BME280;9582;52.018;6.306;2022-09-09T12:17:29;100640.84;;;18.88;80.37
18900;BME280;9582;52.018;6.306;2022-09-09T12:20:06;100651.50;;;18.77;82.19
18900;BME280;9582;52.018;6.306;2022-09-09T12:22:40;100637.88;;;18.82;83.22
18900;BME280;9582;52.018;6.306;2022-09-09T12:25:18;100639.03;;;18.68;83.65
18900;BME280;9582;52.018;6.306;2022-09-09T12:27:58;100639.72;;;18.70;84.95
18900;BME280;9582;52.018;6.306;2022-09-09T12:30:29;100636.91;;;18.83;86.84
18900;BME280;9582;52.018;6.306;2022-09-09T12:33:02;100637.81;;;19.04;86.57
18900;BME280;9582;52.018;6.306;2022-09-09T12:35:30;100632.19;;;19.18;86.46
18900;BME280;9582;52.018;6.306;2022-09-09T12:37:59;100630.53;;;19.38;84.92
18900;BME280;9582;52.018;6.306;2022-09-09T12:40:29;100633.34;;;19.25;85.88
18900;BME280;9582;52.018;6.306;2022-09-09T12:42:56;100633.91;;;19.40;85.18
18900;BME280;9582;52.018;6.306;2022-09-09T12:45:26;100622.63;;;19.27;84.84
18900;BME280;9582;52.018;6.306;2022-09-09T12:47:57;100634.69;;;18.99;86.11
18900;BME280;9582;52.018;6.306;2022-09-09T12:50:28;100623.84;;;19.02;86.52
18900;BME280;9582;52.018;6.306;2022-09-09T12:52:58;100635.91;;;18.95;85.73
18900;BME280;9582;52.018;6.306;2022-09-09T12:55:28;100636.38;;;19.00;85.94
18900;BME280;9582;52.018;6.306;2022-09-09T12:57:56;100628.41;;;19.00;87.33
18900;BME280;9582;52.018;6.306;2022-09-09T13:00:24;100631.91;;;19.00;88.14
18900;BME280;9582;52.018;6.306;2022-09-09T13:02:53;100627.53;;;19.11;89.00
18900;BME280;9582;52.018;6.306;2022-09-09T13:05:22;100625.63;;;19.54;89.84
18900;BME280;9582;52.018;6.306;2022-09-09T13:07:49;100620.56;;;20.02;90.25
18900;BME280;9582;52.018;6.306;2022-09-09T13:10:24;100620.56;;;20.32;89.40
18900;BME280;9582;52.018;6.306;2022-09-09T13:12:52;100619.91;;;20.40;88.43
18900;BME280;9582;52.018;6.306;2022-09-09T13:15:21;100621.19;;;20.64;88.59
18900;BME280;9582;52.018;6.306;2022-09-09T13:17:55;100607.94;;;20.74;86.89
18900;BME280;9582;52.018;6.306;2022-09-09T13:20:22;100603.44;;;20.74;85.51
18900;BME280;9582;52.018;6.306;2022-09-09T13:22:50;100601.50;;;20.86;85.30
18900;BME280;9582;52.018;6.306;2022-09-09T13:25:23;100597.44;;;20.72;84.52